createdAt,value
2018-09-30T00:00:13.608Z,1.93
2018-09-30T00:02:41.583Z,2.00
2018-09-30T00:05:09.618Z,2.00
2018-09-30T00:07:37.503Z,1.90
2018-09-30T00:10:05.331Z,2.30
2018-09-30T00:12:33.064Z,1.95
2018-09-30T00:15:00.867Z,2.13
2018-09-30T00:17:28.506Z,1.90
2018-09-30T00:19:56.266Z,1.90
2018-09-30T00:22:23.941Z,1.65
2018-09-30T00:25:07.552Z,2.17
2018-09-30T00:27:35.190Z,2.17
2018-09-30T00:30:02.906Z,1.90
2018-09-30T00:32:30.596Z,2.50
2018-09-30T00:34:58.284Z,1.77
2018-09-30T00:37:25.938Z,1.87
2018-09-30T00:39:53.775Z,2.13
2018-09-30T00:42:22.218Z,2.27
2018-09-30T00:44:49.845Z,2.40
2018-09-30T00:47:17.465Z,1.77
2018-09-30T00:49:45.137Z,2.20
2018-09-30T00:52:12.993Z,2.40
2018-09-30T00:54:40.760Z,1.93
2018-09-30T00:57:08.503Z,2.00
2018-09-30T00:59:36.211Z,2.20
2018-09-30T01:02:03.999Z,1.95
2018-09-30T01:04:31.729Z,2.00
2018-09-30T01:06:59.442Z,2.20
2018-09-30T01:09:27.083Z,1.60
2018-09-30T01:11:54.837Z,1.83
2018-09-30T01:14:22.526Z,1.73
2018-09-30T01:16:50.890Z,1.60
2018-09-30T01:19:18.486Z,1.77
2018-09-30T01:21:46.184Z,1.80
2018-09-30T01:24:13.834Z,1.73
2018-09-30T01:26:41.501Z,1.90
2018-09-30T01:29:09.370Z,1.97
2018-09-30T01:31:37.018Z,1.73
2018-09-30T01:34:04.720Z,2.00
2018-09-30T01:36:32.339Z,2.20
2018-09-30T01:39:00.033Z,1.70
2018-09-30T01:41:27.657Z,1.90
2018-09-30T01:43:55.281Z,1.87
2018-09-30T01:46:23.189Z,1.83
2018-09-30T01:48:50.868Z,1.77
2018-09-30T01:51:18.491Z,1.90
2018-09-30T01:53:46.162Z,1.93
2018-09-30T01:56:13.800Z,2.23
2018-09-30T01:58:41.508Z,1.90
2018-09-30T02:01:09.135Z,1.80
2018-09-30T02:03:36.837Z,1.67
2018-09-30T02:06:04.488Z,1.70
2018-09-30T02:08:32.101Z,1.55
2018-09-30T02:10:59.801Z,1.90
2018-09-30T02:13:27.398Z,1.60
2018-09-30T02:15:55.056Z,1.70
2018-09-30T02:18:22.689Z,1.80
2018-09-30T02:20:50.361Z,1.80
2018-09-30T02:23:18.026Z,1.80
2018-09-30T02:25:45.643Z,1.67
2018-09-30T02:28:13.313Z,1.80
2018-09-30T02:30:41.040Z,1.90
2018-09-30T02:33:08.719Z,2.00
2018-09-30T02:35:36.372Z,1.83
2018-09-30T02:38:04.051Z,2.13
2018-09-30T02:40:31.861Z,1.67
2018-09-30T02:42:59.551Z,1.90
2018-09-30T02:45:27.167Z,1.60
2018-09-30T02:47:54.854Z,1.70
2018-09-30T02:50:22.600Z,1.80
2018-09-30T02:52:50.218Z,1.67
2018-09-30T02:55:17.923Z,2.10
2018-09-30T02:57:45.594Z,1.70
2018-09-30T03:00:13.239Z,1.93
2018-09-30T03:02:40.902Z,1.90
2018-09-30T03:05:08.553Z,2.10
2018-09-30T03:07:51.252Z,1.53
2018-09-30T03:10:19.019Z,2.03
2018-09-30T03:12:46.686Z,2.03
2018-09-30T03:15:14.309Z,1.90
2018-09-30T03:17:42.047Z,2.10
2018-09-30T03:20:09.686Z,1.73
2018-09-30T03:22:37.377Z,1.60
2018-09-30T03:25:05.017Z,1.60
2018-09-30T03:27:32.706Z,1.53
2018-09-30T03:30:00.389Z,1.67
2018-09-30T03:32:28.034Z,1.65
2018-09-30T03:34:56.851Z,1.70
2018-09-30T03:37:24.471Z,1.40
2018-09-30T03:39:52.101Z,1.70
2018-09-30T03:42:20.281Z,1.70
2018-09-30T03:44:47.906Z,1.50
2018-09-30T03:47:15.563Z,1.50
2018-09-30T03:49:43.227Z,1.57
2018-09-30T03:52:10.860Z,1.70
2018-09-30T03:54:38.486Z,1.87
2018-09-30T03:57:06.142Z,1.60
2018-09-30T03:59:33.797Z,1.83
2018-09-30T04:02:01.473Z,1.57
2018-09-30T04:04:29.084Z,1.62
2018-09-30T04:06:56.912Z,1.50
2018-09-30T04:09:24.621Z,1.70
2018-09-30T04:11:52.185Z,1.40
2018-09-30T04:14:20.321Z,1.80
2018-09-30T04:16:48.005Z,1.40
2018-09-30T04:19:15.678Z,1.80
2018-09-30T04:21:43.329Z,1.97
2018-09-30T04:24:11.032Z,1.60
2018-09-30T04:26:38.774Z,1.80
2018-09-30T04:29:06.485Z,1.50
2018-09-30T04:31:34.160Z,1.65
2018-09-30T04:34:01.849Z,1.73
2018-09-30T04:36:29.531Z,1.70
2018-09-30T04:38:57.210Z,2.07
2018-09-30T04:41:24.889Z,1.85
2018-09-30T04:43:52.475Z,1.70
2018-09-30T04:46:20.265Z,1.70
2018-09-30T04:48:47.998Z,1.90
2018-09-30T04:51:15.649Z,1.50
2018-09-30T04:53:43.411Z,1.43
2018-09-30T04:56:11.323Z,1.83
2018-09-30T04:58:38.982Z,1.80
2018-09-30T05:01:06.643Z,1.70
2018-09-30T05:03:34.299Z,1.67
2018-09-30T05:06:01.982Z,1.80
2018-09-30T05:08:29.734Z,1.62
2018-09-30T05:10:57.320Z,1.67
2018-09-30T05:13:24.938Z,1.80
2018-09-30T05:15:52.666Z,1.70
2018-09-30T05:18:20.362Z,1.70
2018-09-30T05:20:48.029Z,1.50
2018-09-30T05:23:15.674Z,1.60
2018-09-30T05:25:43.354Z,1.60
2018-09-30T05:28:10.970Z,1.73
2018-09-30T05:30:39.362Z,1.80
2018-09-30T05:33:06.977Z,1.80
2018-09-30T05:35:34.713Z,1.70
2018-09-30T05:38:02.387Z,1.93
2018-09-30T05:40:30.141Z,2.27
2018-09-30T05:42:57.764Z,2.10
2018-09-30T05:45:25.503Z,2.17
2018-09-30T05:47:53.194Z,1.70
2018-09-30T05:50:20.882Z,1.98
2018-09-30T05:52:48.592Z,2.00
2018-09-30T05:55:16.351Z,2.10
2018-09-30T05:57:44.256Z,2.00
2018-09-30T06:00:11.956Z,1.70
2018-09-30T06:02:39.631Z,1.93
2018-09-30T06:05:07.271Z,1.93
2018-09-30T06:07:35.025Z,2.20
2018-09-30T06:10:02.699Z,1.90
2018-09-30T06:12:30.329Z,1.87
2018-09-30T06:14:57.999Z,1.90
2018-09-30T06:17:25.588Z,1.87
2018-09-30T06:19:53.249Z,2.10
2018-09-30T06:22:20.863Z,2.00
2018-09-30T06:24:48.732Z,1.80
2018-09-30T06:27:16.348Z,1.80
2018-09-30T06:29:43.951Z,1.70
2018-09-30T06:32:11.774Z,1.80
2018-09-30T06:34:39.443Z,1.90
2018-09-30T06:37:07.177Z,2.10
2018-09-30T06:39:34.885Z,1.60
2018-09-30T06:42:02.745Z,2.47
2018-09-30T06:44:30.422Z,1.77
2018-09-30T06:46:58.125Z,2.12
2018-09-30T06:49:25.811Z,1.60
2018-09-30T06:51:53.502Z,1.97
2018-09-30T06:54:21.099Z,2.40
2018-09-30T06:56:48.742Z,1.77
2018-09-30T06:59:16.430Z,2.00
2018-09-30T07:01:44.076Z,1.80
2018-09-30T07:04:11.716Z,1.57
2018-09-30T07:06:39.354Z,1.80
2018-09-30T07:09:07.128Z,1.60
2018-09-30T07:11:34.732Z,1.73
2018-09-30T07:14:02.350Z,1.70
2018-09-30T07:16:30.027Z,1.97
2018-09-30T07:18:57.704Z,1.80
2018-09-30T07:21:25.466Z,1.73
2018-09-30T07:23:53.174Z,1.58
2018-09-30T07:26:20.828Z,1.90
2018-09-30T07:28:48.439Z,1.53
2018-09-30T07:31:16.074Z,1.97
2018-09-30T07:33:43.807Z,2.10
2018-09-30T07:36:11.428Z,2.00
2018-09-30T07:38:39.265Z,1.62
2018-09-30T07:41:07.456Z,1.77
2018-09-30T07:43:35.232Z,1.90
2018-09-30T07:46:03.780Z,1.95
2018-09-30T07:48:31.559Z,1.60
2018-09-30T07:50:59.589Z,1.80
2018-09-30T07:53:27.746Z,1.93
2018-09-30T07:55:55.656Z,2.23
2018-09-30T07:58:24.468Z,2.53
2018-09-30T08:00:52.326Z,1.80
2018-09-30T08:03:21.022Z,2.05
2018-09-30T08:05:49.001Z,1.60
2018-09-30T08:08:17.047Z,2.00
2018-09-30T08:10:45.363Z,2.00
2018-09-30T08:13:13.492Z,1.60
2018-09-30T08:15:41.596Z,1.80
2018-09-30T08:18:09.619Z,2.30
2018-09-30T08:20:37.548Z,1.87
2018-09-30T08:23:05.662Z,1.73
2018-09-30T08:25:33.694Z,1.73
2018-09-30T08:28:01.695Z,2.27
2018-09-30T08:30:30.438Z,1.97
2018-09-30T08:32:58.090Z,1.80
2018-09-30T08:35:25.814Z,2.00
2018-09-30T08:37:53.438Z,2.07
2018-09-30T08:40:21.170Z,1.83
2018-09-30T08:42:48.845Z,1.73
2018-09-30T08:45:16.496Z,1.87
2018-09-30T08:47:44.238Z,1.73
2018-09-30T08:50:12.087Z,1.90
2018-09-30T08:52:39.594Z,2.03
2018-09-30T08:55:07.234Z,1.90
2018-09-30T08:57:34.756Z,1.80
2018-09-30T09:00:02.304Z,1.70
2018-09-30T09:02:29.858Z,1.77
2018-09-30T09:04:57.440Z,1.80
2018-09-30T09:07:24.956Z,2.78
2018-09-30T09:09:52.570Z,1.90
2018-09-30T09:12:20.133Z,1.90
2018-09-30T09:14:47.661Z,1.80
2018-09-30T09:17:15.176Z,2.00
2018-09-30T09:19:42.768Z,1.90
2018-09-30T09:22:10.371Z,2.27
2018-09-30T09:24:37.896Z,2.30
2018-09-30T09:27:05.528Z,1.90
2018-09-30T09:29:33.055Z,2.40
2018-09-30T09:32:00.621Z,1.70
2018-09-30T09:34:28.130Z,2.10
2018-09-30T09:36:55.724Z,2.20
2018-09-30T09:39:23.249Z,1.80
2018-09-30T09:41:50.786Z,2.15
2018-09-30T09:44:18.356Z,2.00
2018-09-30T09:46:47.085Z,2.27
2018-09-30T09:49:14.615Z,1.83
2018-09-30T09:51:42.178Z,2.13
2018-09-30T09:54:09.736Z,2.07
2018-09-30T09:56:37.297Z,2.50
2018-09-30T09:59:04.944Z,2.00
2018-09-30T10:01:32.471Z,2.10
2018-09-30T10:04:00.027Z,2.03
2018-09-30T10:06:27.545Z,2.60
2018-09-30T10:08:55.139Z,2.13
2018-09-30T10:11:22.722Z,2.20
2018-09-30T10:13:50.229Z,2.80
2018-09-30T10:16:17.780Z,2.10
2018-09-30T10:18:45.460Z,2.43
2018-09-30T10:21:13.087Z,1.97
2018-09-30T10:23:40.805Z,2.10
2018-09-30T10:26:08.436Z,2.07
2018-09-30T10:28:36.344Z,2.10
2018-09-30T10:31:03.937Z,1.90
2018-09-30T10:33:31.845Z,2.00
2018-09-30T10:35:59.515Z,2.07
2018-09-30T10:38:27.420Z,2.20
2018-09-30T10:40:55.107Z,1.87
2018-09-30T10:43:22.896Z,1.83
2018-09-30T10:45:50.491Z,1.90
2018-09-30T10:48:18.063Z,2.00
2018-09-30T10:50:45.887Z,1.97
2018-09-30T10:53:13.581Z,1.93
2018-09-30T10:55:41.523Z,2.50
2018-09-30T10:58:09.185Z,2.10
2018-09-30T11:00:36.939Z,2.05
2018-09-30T11:03:04.754Z,1.90
2018-09-30T11:05:32.364Z,2.30
2018-09-30T11:07:59.987Z,2.30
2018-09-30T11:10:27.649Z,1.90
2018-09-30T11:12:55.224Z,2.00
2018-09-30T11:15:22.924Z,1.77
2018-09-30T11:17:50.630Z,2.20
2018-09-30T11:20:18.379Z,2.20
2018-09-30T11:22:46.072Z,2.10
2018-09-30T11:25:13.999Z,2.00
2018-09-30T11:27:41.702Z,1.90
2018-09-30T11:30:09.677Z,1.90
2018-09-30T11:32:37.425Z,1.90
2018-09-30T11:35:05.239Z,2.07
2018-09-30T11:37:32.997Z,2.08
2018-09-30T11:40:00.748Z,1.90
2018-09-30T11:42:28.468Z,2.00
2018-09-30T11:44:56.262Z,1.90
2018-09-30T11:47:23.989Z,2.57
2018-09-30T11:49:51.740Z,1.77
2018-09-30T11:52:20.194Z,2.10
2018-09-30T11:54:47.898Z,1.93
2018-09-30T11:57:15.703Z,1.80
2018-09-30T11:59:43.387Z,2.23
2018-09-30T12:02:11.216Z,2.25
2018-09-30T12:04:39.008Z,1.75
2018-09-30T12:07:06.827Z,1.80
2018-09-30T12:09:34.571Z,1.97
2018-09-30T12:12:02.226Z,1.90
2018-09-30T12:14:29.940Z,1.80
2018-09-30T12:16:57.593Z,1.83
2018-09-30T12:19:25.394Z,1.83
2018-09-30T12:21:53.086Z,2.22
2018-09-30T12:24:20.835Z,1.80
2018-09-30T12:26:49.929Z,1.80
2018-09-30T12:29:18.809Z,1.70
2018-09-30T12:31:46.729Z,2.37
2018-09-30T12:34:14.260Z,1.73
2018-09-30T12:36:41.817Z,1.77
2018-09-30T12:39:09.389Z,2.10
2018-09-30T12:41:37.132Z,2.00
2018-09-30T12:44:04.866Z,1.60
2018-09-30T12:46:32.433Z,1.97
2018-09-30T12:48:59.992Z,1.90
2018-09-30T12:51:27.576Z,1.97
2018-09-30T12:53:55.165Z,1.70
2018-09-30T12:56:22.666Z,1.90
2018-09-30T12:58:50.204Z,1.83
2018-09-30T13:01:17.777Z,2.10
2018-09-30T13:03:45.298Z,1.83
2018-09-30T13:06:12.856Z,2.03
2018-09-30T13:08:40.429Z,1.90
2018-09-30T13:11:07.936Z,1.70
2018-09-30T13:13:35.493Z,1.77
2018-09-30T13:16:03.093Z,1.93
2018-09-30T13:18:30.610Z,1.67
2018-09-30T13:20:58.251Z,1.80
2018-09-30T13:23:25.789Z,1.83
2018-09-30T13:25:53.399Z,1.50
2018-09-30T13:28:20.936Z,2.00
2018-09-30T13:30:48.456Z,1.90
2018-09-30T13:33:16.029Z,2.10
2018-09-30T13:35:43.589Z,2.20
2018-09-30T13:38:11.164Z,2.00
2018-09-30T13:40:38.792Z,2.10
2018-09-30T13:43:06.295Z,2.40
2018-09-30T13:45:33.819Z,1.90
2018-09-30T13:48:01.600Z,1.80
2018-09-30T13:50:29.139Z,2.37
2018-09-30T13:52:56.699Z,2.00
2018-09-30T13:55:24.279Z,2.63
2018-09-30T13:57:51.849Z,2.08
2018-09-30T14:00:20.011Z,1.90
2018-09-30T14:02:47.572Z,1.97
2018-09-30T14:05:15.193Z,2.37
2018-09-30T14:07:42.758Z,1.83
2018-09-30T14:10:10.262Z,2.27
2018-09-30T14:12:37.785Z,2.17
2018-09-30T14:15:05.378Z,2.10
2018-09-30T14:17:32.981Z,2.57
2018-09-30T14:20:00.577Z,2.00
2018-09-30T14:22:28.096Z,2.40
2018-09-30T14:24:55.684Z,2.60
2018-09-30T14:27:23.445Z,2.53
2018-09-30T14:29:50.888Z,2.80
2018-09-30T14:32:18.581Z,1.80
2018-09-30T14:34:46.097Z,2.43
2018-09-30T14:37:13.666Z,2.10
2018-09-30T14:39:41.186Z,2.60
2018-09-30T14:42:08.708Z,2.63
2018-09-30T14:44:36.298Z,3.10
2018-09-30T14:47:03.865Z,3.60
2018-09-30T14:49:31.438Z,3.50
2018-09-30T14:51:59.015Z,3.30
2018-09-30T14:54:26.658Z,3.30
2018-09-30T14:56:54.379Z,3.17
2018-09-30T14:59:21.909Z,3.90
2018-09-30T15:01:49.418Z,3.60
2018-09-30T15:04:17.064Z,3.50
2018-09-30T15:06:44.601Z,3.60
2018-09-30T15:09:12.191Z,3.47
2018-09-30T15:11:39.700Z,3.33
2018-09-30T15:14:07.274Z,3.57
2018-09-30T15:16:34.797Z,3.42
2018-09-30T15:19:02.399Z,3.37
2018-09-30T15:21:29.965Z,3.67
2018-09-30T15:23:57.514Z,3.40
2018-09-30T15:26:25.038Z,3.80
2018-09-30T15:28:52.551Z,4.27
2018-09-30T15:31:20.118Z,3.93
2018-09-30T15:33:47.680Z,3.80
2018-09-30T15:36:15.213Z,3.83
2018-09-30T15:38:42.773Z,3.93
2018-09-30T15:41:10.300Z,3.70
2018-09-30T15:43:37.835Z,4.47
2018-09-30T15:46:05.407Z,3.90
2018-09-30T15:48:33.014Z,3.83
2018-09-30T15:51:00.678Z,4.13
2018-09-30T15:53:28.201Z,3.70
2018-09-30T15:55:55.773Z,3.53
2018-09-30T15:58:23.336Z,3.30
2018-09-30T16:00:51.117Z,3.53
2018-09-30T16:03:18.789Z,2.80
2018-09-30T16:05:46.338Z,3.00
2018-09-30T16:08:13.901Z,3.03
2018-09-30T16:10:41.498Z,3.30
2018-09-30T16:13:09.081Z,2.80
2018-09-30T16:15:36.602Z,3.07
2018-09-30T16:18:04.179Z,3.00
2018-09-30T16:20:31.724Z,2.90
2018-09-30T16:22:59.577Z,3.00
2018-09-30T16:25:27.177Z,2.33
2018-09-30T16:27:54.721Z,2.93
2018-09-30T16:30:22.304Z,2.63
2018-09-30T16:32:49.824Z,2.80
2018-09-30T16:35:17.477Z,2.73
2018-09-30T16:37:45.009Z,2.40
2018-09-30T16:40:12.555Z,2.27
2018-09-30T16:42:40.082Z,2.53
2018-09-30T16:45:07.659Z,2.50
2018-09-30T16:47:35.192Z,3.00
2018-09-30T16:50:02.796Z,2.70
2018-09-30T16:52:30.386Z,2.78
2018-09-30T16:54:57.950Z,2.70
2018-09-30T16:57:25.507Z,2.63
2018-09-30T16:59:53.079Z,2.53
2018-09-30T17:02:21.379Z,2.50
2018-09-30T17:04:48.958Z,3.10
2018-09-30T17:07:16.534Z,2.50
2018-09-30T17:09:44.140Z,3.27
2018-09-30T17:12:11.642Z,2.87
2018-09-30T17:14:39.226Z,3.60
2018-09-30T17:17:06.761Z,2.60
2018-09-30T17:19:34.360Z,2.73
2018-09-30T17:22:01.877Z,2.80
2018-09-30T17:24:29.438Z,3.83
2018-09-30T17:26:56.979Z,4.30
2018-09-30T17:29:24.544Z,3.80
2018-09-30T17:31:52.058Z,4.30
2018-09-30T17:34:20.383Z,3.60
2018-09-30T17:36:47.908Z,3.70
2018-09-30T17:39:15.580Z,4.40
2018-09-30T17:41:43.144Z,3.67
2018-09-30T17:44:10.865Z,4.30
2018-09-30T17:46:38.611Z,4.27
2018-09-30T17:49:06.571Z,4.40
2018-09-30T17:51:34.171Z,4.10
2018-09-30T17:54:02.139Z,4.33
2018-09-30T17:56:29.894Z,4.40
2018-09-30T17:58:57.507Z,5.00
2018-09-30T18:01:25.136Z,4.07
2018-09-30T18:03:52.835Z,4.23
2018-09-30T18:06:20.556Z,4.67
2018-09-30T18:08:49.548Z,3.87
2018-09-30T18:11:17.285Z,4.70
2018-09-30T18:13:45.144Z,4.37
2018-09-30T18:16:12.893Z,3.80
2018-09-30T18:18:40.527Z,4.60
2018-09-30T18:21:08.244Z,4.40
2018-09-30T18:23:35.974Z,3.70
2018-09-30T18:26:03.510Z,3.87
2018-09-30T18:28:31.197Z,3.70
2018-09-30T18:30:58.769Z,3.80
2018-09-30T18:33:26.419Z,3.50
2018-09-30T18:35:54.035Z,3.70
2018-09-30T18:38:21.753Z,3.63
2018-09-30T18:40:49.388Z,4.47
2018-09-30T18:43:17.063Z,4.10
2018-09-30T18:45:44.849Z,4.20
2018-09-30T18:48:12.522Z,4.00
2018-09-30T18:50:40.437Z,4.57
2018-09-30T18:53:08.069Z,4.10
2018-09-30T18:55:35.766Z,3.90
2018-09-30T18:58:03.429Z,4.70
2018-09-30T19:00:31.143Z,4.67
2018-09-30T19:02:58.882Z,4.20
2018-09-30T19:05:26.721Z,4.57
2018-09-30T19:07:54.502Z,4.90
2018-09-30T19:10:22.192Z,4.27
2018-09-30T19:12:49.909Z,5.00
2018-09-30T19:15:17.570Z,4.63
2018-09-30T19:17:45.636Z,4.50
2018-09-30T19:20:15.984Z,4.70
2018-09-30T19:22:43.798Z,4.80
2018-09-30T19:25:12.018Z,5.20
2018-09-30T19:27:40.355Z,5.70
2018-09-30T19:32:51.785Z,6.23
2018-09-30T19:35:20.608Z,5.90
2018-09-30T19:37:48.589Z,6.53
2018-09-30T19:40:17.375Z,7.30
2018-09-30T19:42:45.168Z,6.87
2018-09-30T19:45:12.757Z,6.40
2018-09-30T19:47:40.434Z,5.80
2018-09-30T19:50:08.223Z,5.37
2018-09-30T19:52:35.871Z,5.40
2018-09-30T19:55:03.543Z,5.50
2018-09-30T19:57:31.225Z,5.70
2018-09-30T19:59:58.816Z,5.70
2018-09-30T20:02:26.474Z,5.27
2018-09-30T20:04:54.101Z,5.30
2018-09-30T20:07:21.748Z,6.37
2018-09-30T20:09:49.447Z,5.60
2018-09-30T20:12:17.207Z,6.17
2018-09-30T20:14:45.072Z,5.60
2018-09-30T20:17:12.854Z,5.50
2018-09-30T20:19:40.568Z,5.97
2018-09-30T20:22:08.345Z,5.67
2018-09-30T20:24:36.073Z,5.82
2018-09-30T20:27:03.805Z,5.90
2018-09-30T20:29:31.627Z,5.30
2018-09-30T20:31:59.328Z,5.10
2018-09-30T20:34:27.211Z,5.63
2018-09-30T20:36:54.976Z,6.77
2018-09-30T20:39:22.595Z,6.30
2018-09-30T20:41:50.249Z,6.17
2018-09-30T20:44:17.936Z,6.90
2018-09-30T20:46:45.624Z,6.30
2018-09-30T20:49:13.326Z,6.77
2018-09-30T20:51:40.839Z,7.70
2018-09-30T20:54:08.444Z,6.97
2018-09-30T20:56:36.160Z,7.40
2018-09-30T20:59:03.962Z,7.80
2018-09-30T21:01:31.583Z,6.83
2018-09-30T21:03:59.193Z,7.40
2018-09-30T21:06:26.808Z,7.70
2018-09-30T21:08:54.473Z,8.10
2018-09-30T21:11:22.187Z,8.30
2018-09-30T21:13:49.812Z,8.00
2018-09-30T21:16:17.573Z,7.70
2018-09-30T21:18:45.325Z,7.80
2018-09-30T21:21:12.988Z,8.60
2018-09-30T21:23:40.740Z,8.77
2018-09-30T21:26:08.460Z,7.83
2018-09-30T21:28:36.068Z,7.93
2018-09-30T21:31:03.954Z,7.57
2018-09-30T21:33:31.576Z,7.57
2018-09-30T21:35:59.245Z,7.53
2018-09-30T21:38:26.907Z,8.07
2018-09-30T21:40:54.633Z,7.63
2018-09-30T21:43:22.364Z,7.85
2018-09-30T21:45:50.041Z,7.43
2018-09-30T21:48:17.625Z,7.77
2018-09-30T21:50:45.166Z,7.57
2018-09-30T21:53:12.806Z,7.10
2018-09-30T21:55:40.421Z,8.23
2018-09-30T21:58:07.944Z,7.97
2018-09-30T22:00:35.544Z,6.60
2018-09-30T22:03:03.130Z,7.77
2018-09-30T22:05:30.674Z,7.70
2018-09-30T22:07:58.237Z,7.03
2018-09-30T22:10:25.754Z,7.83
2018-09-30T22:12:53.335Z,7.87
2018-09-30T22:15:20.892Z,7.37
2018-09-30T22:17:48.433Z,6.37
2018-09-30T22:20:16.037Z,7.07
2018-09-30T22:22:43.552Z,7.00
2018-09-30T22:25:11.109Z,6.57
2018-09-30T22:27:38.629Z,6.83
2018-09-30T22:30:06.219Z,7.00
2018-09-30T22:32:33.985Z,6.15
2018-09-30T22:35:01.512Z,6.57
2018-09-30T22:37:29.081Z,5.90
2018-09-30T22:39:56.615Z,6.03
2018-09-30T22:42:24.230Z,6.17
2018-09-30T22:44:51.764Z,5.93
2018-09-30T22:47:19.356Z,6.00
2018-09-30T22:49:46.894Z,5.57
2018-09-30T22:52:14.419Z,5.83
2018-09-30T22:54:42.035Z,5.77
2018-09-30T22:57:09.562Z,5.90
2018-09-30T22:59:37.133Z,5.85
2018-09-30T23:02:04.685Z,6.00
2018-09-30T23:04:32.295Z,5.50
2018-09-30T23:06:59.860Z,5.57
2018-09-30T23:09:27.422Z,5.33
2018-09-30T23:11:54.948Z,5.53
2018-09-30T23:14:22.489Z,5.97
2018-09-30T23:16:50.072Z,5.30
2018-09-30T23:19:17.628Z,5.50
2018-09-30T23:21:45.179Z,5.37
2018-09-30T23:24:12.696Z,5.77
2018-09-30T23:26:40.287Z,5.57
2018-09-30T23:29:07.957Z,5.63
2018-09-30T23:31:35.515Z,5.70
2018-09-30T23:34:03.074Z,5.47
2018-09-30T23:36:30.596Z,6.47
2018-09-30T23:38:58.169Z,5.60
2018-09-30T23:41:25.782Z,6.13
2018-09-30T23:43:53.286Z,5.77
2018-09-30T23:46:20.827Z,5.87
2018-09-30T23:48:48.379Z,5.83
2018-09-30T23:51:15.958Z,6.17
2018-09-30T23:53:43.476Z,5.90
2018-09-30T23:56:11.159Z,6.17
2018-09-30T23:58:38.698Z,5.63
